Time;durP1;ratioP1;P1;durP2;ratioP2;P2;SDS_P1;SDS_P2;PMS_P1;PMS_P2;Temp;Humidity;BMP_temperature;BMP_pressure;BME280_temperature;BME280_humidity;BME280_pressure;Samples;Min_cycle;Max_cycle;Signal;HPM_P1;HPM_P2
2021/12/17 00:07:00;;;;;;;;;;;15.80;61.50;;;;;;5101155;28;19915;-70
2021/12/17 00:09:26;;;;;;;;;;;15.80;61.50;;;;;;5101139;28;19908;-71
2021/12/17 00:11:52;;;;;;;;;;;15.80;61.40;;;;;;5100800;28;20139;-71
2021/12/17 00:14:26;;;;;;;;;;;15.80;61.40;;;;;;5100793;28;20163;-71
2021/12/17 00:16:53;;;;;;;;;;;15.80;61.50;;;;;;5101036;28;19908;-71
2021/12/17 00:19:33;;;;;;;;;;;15.80;61.30;;;;;;5100661;28;20236;-71
2021/12/17 00:46:32;;;;;;;;;;;15.80;61.40;;;;;;5055261;28;20502;-72
2021/12/17 00:49:30;;;;;;;;;;;15.80;61.30;;;;;;5100198;28;19922;-71
2021/12/17 00:52:01;;;;;;;;;;;15.80;61.50;;;;;;5081906;28;20371;-71
2021/12/17 00:54:33;;;;;;;;;;;15.80;61.40;;;;;;5100096;28;20089;-71
2021/12/17 00:57:00;;;;;;;;;;;15.80;61.50;;;;;;5100166;28;19908;-71
2021/12/17 00:59:26;;;;;;;;;;;15.80;61.40;;;;;;5099903;28;20392;-70
2021/12/17 01:01:53;;;;;;;;;;;15.80;61.50;;;;;;5100074;28;19908;-71
2021/12/17 01:04:19;;;;;;;;;;;15.80;61.40;;;;;;5100094;28;19900;-71
2021/12/17 01:06:45;;;;;;;;;;;15.80;61.40;;;;;;5100054;28;19900;-70
2021/12/17 01:09:12;;;;;;;;;;;15.80;61.40;;;;;;5100033;28;19908;-72
2021/12/17 01:11:38;;;;;;;;;;;15.80;61.50;;;;;;5099979;28;19954;-71
2021/12/17 01:14:04;;;;;;;;;;;15.80;61.40;;;;;;5099992;28;19899;-71
2021/12/17 01:16:30;;;;;;;;;;;15.80;61.30;;;;;;5099847;28;19908;-71
2021/12/17 01:22:00;;;;;;;;;;;15.80;61.40;;;;;;5100024;28;19918;-71
2021/12/17 01:35:38;;;;;;;;;;;15.80;61.40;;;;;;5099763;28;20014;-70
2021/12/17 01:43:21;;;;;;;;;;;15.80;61.40;;;;;;5104038;28;19987;-71
2021/12/17 01:45:47;;;;;;;;;;;15.80;61.40;;;;;;5103645;28;19975;-70
2021/12/17 01:48:18;;;;;;;;;;;15.80;61.40;;;;;;5103711;28;19908;-72
2021/12/17 01:56:49;;;;;;;;;;;15.80;61.40;;;;;;5103548;28;20242;-71
2021/12/17 01:59:22;;;;;;;;;;;15.80;61.40;;;;;;5101113;28;19969;-71
2021/12/17 02:01:49;;;;;;;;;;;15.80;62.00;;;;;;5103270;28;19919;-70
2021/12/17 02:04:14;;;;;;;;;;;15.80;61.40;;;;;;5103424;28;19907;-72
2021/12/17 02:06:40;;;;;;;;;;;15.80;61.40;;;;;;5103316;28;19908;-71
2021/12/17 02:09:15;;;;;;;;;;;15.80;61.40;;;;;;5103316;28;19919;-71
2021/12/17 02:20:21;;;;;;;;;;;15.80;61.40;;;;;;5103068;28;20023;-71
2021/12/17 02:31:02;;;;;;;;;;;15.80;61.40;;;;;;5102975;28;19978;-71
2021/12/17 02:33:27;;;;;;;;;;;15.80;61.40;;;;;;5102848;28;19907;-71
2021/12/17 02:35:53;;;;;;;;;;;15.80;61.40;;;;;;5102843;28;19908;-70
2021/12/17 02:38:18;;;;;;;;;;;15.80;61.50;;;;;;5102845;28;19900;-71
2021/12/17 02:46:12;;;;;;;;;;;15.80;61.40;;;;;;5102954;28;20187;-72
2021/12/17 02:48:40;;;;;;;;;;;15.80;61.40;;;;;;5102606;28;19908;-70
2021/12/17 02:51:06;;;;;;;;;;;15.80;61.30;;;;;;5102545;28;19923;-70
2021/12/17 02:53:31;;;;;;;;;;;15.80;61.30;;;;;;5101761;28;19915;-70
2021/12/17 02:55:58;;;;;;;;;;;15.80;61.40;;;;;;5102483;28;19919;-72
2021/12/17 02:58:25;;;;;;;;;;;15.80;61.40;;;;;;5102232;28;20100;-71
2021/12/17 03:00:51;;;;;;;;;;;15.80;61.40;;;;;;5102336;28;19959;-72
2021/12/17 03:03:20;;;;;;;;;;;15.80;61.40;;;;;;5102316;28;19908;-72
2021/12/17 03:05:46;;;;;;;;;;;15.80;61.40;;;;;;5102274;28;19908;-73
2021/12/17 03:08:14;;;;;;;;;;;15.80;61.40;;;;;;5102371;28;20136;-72
2021/12/17 03:10:41;;;;;;;;;;;15.80;61.40;;;;;;5102195;28;20136;-72
2021/12/17 03:13:07;;;;;;;;;;;15.80;61.40;;;;;;5102072;28;19908;-72
2021/12/17 03:25:51;;;;;;;;;;;15.80;61.30;;;;;;5101915;28;19939;-71
2021/12/17 03:28:17;;;;;;;;;;;15.80;61.30;;;;;;5102074;28;20100;-71
2021/12/17 03:30:43;;;;;;;;;;;15.80;61.40;;;;;;5101846;28;19908;-71
2021/12/17 03:33:09;;;;;;;;;;;15.80;61.30;;;;;;5101754;28;19900;-71
2021/12/17 03:35:34;;;;;;;;;;;15.80;61.40;;;;;;5083522;28;20231;-70
2021/12/17 03:38:00;;;;;;;;;;;15.80;61.40;;;;;;5101693;28;19912;-71
2021/12/17 03:40:27;;;;;;;;;;;15.80;61.30;;;;;;5083430;28;19954;-71
2021/12/17 03:43:01;;;;;;;;;;;15.80;61.30;;;;;;5101638;28;19908;-71
2021/12/17 03:45:26;;;;;;;;;;;15.80;61.40;;;;;;5101521;28;20201;-71
2021/12/17 03:47:52;;;;;;;;;;;15.80;61.40;;;;;;5083341;28;19915;-72
2021/12/17 03:50:17;;;;;;;;;;;15.80;61.40;;;;;;5101397;28;19908;-71
2021/12/17 03:52:43;;;;;;;;;;;15.80;61.40;;;;;;5101428;28;20252;-70
2021/12/17 03:55:09;;;;;;;;;;;15.80;61.50;;;;;;5101576;28;19907;-71
2021/12/17 03:57:35;;;;;;;;;;;15.80;61.40;;;;;;5101168;28;20342;-71
2021/12/17 04:00:03;;;;;;;;;;;15.80;62.00;;;;;;5101267;28;19912;-71
2021/12/17 04:02:28;;;;;;;;;;;15.80;61.40;;;;;;5101252;28;20188;-71
2021/12/17 04:04:54;;;;;;;;;;;15.80;61.30;;;;;;5100172;28;19907;-71
2021/12/17 04:07:19;;;;;;;;;;;15.80;61.40;;;;;;5101163;28;19915;-70
2021/12/17 04:09:45;;;;;;;;;;;15.80;61.30;;;;;;5101077;28;19946;-69
2021/12/17 04:12:15;;;;;;;;;;;15.80;61.30;;;;;;5101111;28;19908;-71
2021/12/17 04:14:44;;;;;;;;;;;15.80;61.30;;;;;;5101012;28;19915;-71
2021/12/17 04:17:10;;;;;;;;;;;15.80;61.40;;;;;;5100925;28;19915;-71
2021/12/17 04:19:36;;;;;;;;;;;15.80;61.30;;;;;;5100801;28;19915;-71
2021/12/17 04:22:03;;;;;;;;;;;15.80;61.20;;;;;;5100922;28;19908;-71
2021/12/17 04:24:28;;;;;;;;;;;15.80;61.30;;;;;;5082665;28;19949;-71
2021/12/17 04:26:54;;;;;;;;;;;15.80;61.30;;;;;;5100739;28;19904;-71
2021/12/17 04:29:21;;;;;;;;;;;15.80;61.40;;;;;;5100761;28;20151;-71
2021/12/17 04:31:52;;;;;;;;;;;15.80;61.40;;;;;;5100613;28;19978;-70
2021/12/17 04:34:19;;;;;;;;;;;15.80;61.30;;;;;;5100724;28;19908;-71
2021/12/17 04:36:47;;;;;;;;;;;15.80;61.30;;;;;;5100638;28;19931;-71
2021/12/17 04:39:13;;;;;;;;;;;15.80;61.30;;;;;;5100650;28;19908;-71
2021/12/17 04:41:46;;;;;;;;;;;15.80;61.40;;;;;;5100480;28;19965;-71
2021/12/17 04:47:04;;;;;;;;;;;15.80;61.30;;;;;;5100731;28;19900;-71
2021/12/17 04:57:40;;;;;;;;;;;15.80;61.40;;;;;;5100131;28;19957;-72
2021/12/17 05:00:16;;;;;;;;;;;15.80;61.40;;;;;;5100195;28;20463;-72
2021/12/17 05:02:45;;;;;;;;;;;15.80;61.30;;;;;;5100347;28;19908;-72
2021/12/17 05:05:11;;;;;;;;;;;15.80;61.40;;;;;;5100235;28;19975;-71
2021/12/17 05:07:40;;;;;;;;;;;15.80;61.30;;;;;;5100136;28;19908;-72
2021/12/17 05:10:26;;;;;;;;;;;15.80;61.20;;;;;;5100094;28;19908;-72
2021/12/17 05:20:52;;;;;;;;;;;15.80;61.30;;;;;;5100259;28;20123;-71
2021/12/17 05:23:29;;;;;;;;;;;15.80;61.20;;;;;;5100003;28;19950;-71
2021/12/17 05:25:55;;;;;;;;;;;15.80;61.40;;;;;;5100057;28;19914;-72
2021/12/17 05:28:21;;;;;;;;;;;15.80;61.40;;;;;;5100039;28;19912;-71
2021/12/17 05:30:47;;;;;;;;;;;15.80;61.40;;;;;;5081818;28;19915;-71
2021/12/17 05:33:13;;;;;;;;;;;15.80;61.30;;;;;;5099949;28;20143;-72
2021/12/17 05:35:39;;;;;;;;;;;15.80;61.40;;;;;;5099915;28;19923;-71
2021/12/17 05:38:04;;;;;;;;;;;15.80;62.00;;;;;;5099986;28;19907;-71
2021/12/17 05:40:30;;;;;;;;;;;15.80;61.40;;;;;;5081596;28;20119;-70
2021/12/17 05:42:59;;;;;;;;;;;15.80;61.30;;;;;;5099822;28;19908;-71
2021/12/17 05:45:36;;;;;;;;;;;15.80;61.30;;;;;;5099881;28;19900;-72
2021/12/17 05:48:06;;;;;;;;;;;15.80;61.40;;;;;;5099847;28;19908;-71
2021/12/17 05:50:32;;;;;;;;;;;15.70;61.30;;;;;;5099852;28;19908;-71
2021/12/17 05:52:58;;;;;;;;;;;15.80;61.40;;;;;;5099737;28;19907;-70
2021/12/17 05:55:24;;;;;;;;;;;15.80;61.30;;;;;;5081626;28;19907;-71
2021/12/17 05:57:50;;;;;;;;;;;15.80;61.40;;;;;;5099530;28;20118;-71
2021/12/17 06:00:15;;;;;;;;;;;15.80;61.30;;;;;;5099673;28;20183;-71
2021/12/17 06:02:41;;;;;;;;;;;15.80;61.30;;;;;;5099735;28;19989;-71
2021/12/17 06:05:06;;;;;;;;;;;15.80;61.30;;;;;;5099596;28;19919;-71
2021/12/17 06:07:32;;;;;;;;;;;15.70;61.20;;;;;;5099631;28;19935;-71
2021/12/17 06:10:00;;;;;;;;;;;15.80;61.40;;;;;;5099565;28;19948;-71
2021/12/17 06:12:25;;;;;;;;;;;15.70;61.40;;;;;;5099559;28;20139;-71
2021/12/17 06:14:51;;;;;;;;;;;15.80;61.40;;;;;;5099580;28;19908;-70
2021/12/17 06:17:16;;;;;;;;;;;15.80;61.30;;;;;;5099483;28;20037;-71
2021/12/17 06:19:42;;;;;;;;;;;15.80;61.20;;;;;;5099455;28;19950;-71
2021/12/17 06:22:08;;;;;;;;;;;15.80;61.30;;;;;;5099475;28;19915;-71
2021/12/17 06:24:33;;;;;;;;;;;15.80;61.40;;;;;;5099515;28;19946;-71
2021/12/17 06:26:59;;;;;;;;;;;15.80;61.30;;;;;;5099470;28;19900;-70
2021/12/17 06:29:24;;;;;;;;;;;15.70;61.20;;;;;;5103052;28;19904;-70
2021/12/17 06:31:50;;;;;;;;;;;15.80;61.30;;;;;;5084755;28;19975;-71
2021/12/17 06:34:15;;;;;;;;;;;15.80;61.30;;;;;;5102923;28;19908;-70
2021/12/17 06:36:41;;;;;;;;;;;15.80;61.30;;;;;;5102886;28;20110;-72
2021/12/17 06:39:07;;;;;;;;;;;15.80;61.20;;;;;;5084581;28;19939;-71
2021/12/17 06:41:32;;;;;;;;;;;15.80;61.30;;;;;;5102704;28;19908;-71
2021/12/17 06:43:59;;;;;;;;;;;15.80;61.30;;;;;;5102697;28;19912;-71
2021/12/17 06:46:55;;;;;;;;;;;15.80;61.30;;;;;;5102718;28;20446;-71
2021/12/17 06:49:25;;;;;;;;;;;15.80;61.30;;;;;;5102215;28;19912;-70
2021/12/17 06:55:02;;;;;;;;;;;15.80;61.40;;;;;;5102481;28;20158;-71
2021/12/17 07:21:35;;;;;;;;;;;15.80;61.20;;;;;;5102149;28;19912;-71
2021/12/17 07:35:23;;;;;;;;;;;15.80;61.10;;;;;;5101764;28;20026;-70
2021/12/17 07:39:42;;;;;;;;;;;15.80;61.10;;;;;;5101522;28;19998;-72
2021/12/17 07:42:08;;;;;;;;;;;15.80;61.10;;;;;;5101549;28;19922;-71
2021/12/17 07:44:34;;;;;;;;;;;15.80;61.00;;;;;;5101542;28;19938;-71
2021/12/17 07:47:00;;;;;;;;;;;15.80;61.00;;;;;;5101408;28;20135;-71
2021/12/17 07:49:26;;;;;;;;;;;15.80;60.90;;;;;;5102136;28;20029;-72
2021/12/17 07:51:51;;;;;;;;;;;15.90;61.00;;;;;;5083265;28;20163;-72
2021/12/17 07:54:17;;;;;;;;;;;15.90;61.00;;;;;;5101311;28;20137;-71
2021/12/17 07:56:42;;;;;;;;;;;15.90;60.90;;;;;;5101335;28;20323;-69
2021/12/17 07:59:09;;;;;;;;;;;15.90;60.90;;;;;;5101059;28;20222;-71
2021/12/17 08:01:35;;;;;;;;;;;15.90;61.00;;;;;;5101139;28;19904;-71
2021/12/17 08:04:04;;;;;;;;;;;15.90;61.00;;;;;;5101232;28;19908;-72
2021/12/17 08:06:30;;;;;;;;;;;15.90;61.00;;;;;;5101130;28;19939;-71
2021/12/17 08:08:55;;;;;;;;;;;15.80;60.90;;;;;;5101062;28;20290;-72
2021/12/17 08:11:22;;;;;;;;;;;15.90;60.80;;;;;;5101068;28;19908;-70
2021/12/17 08:13:48;;;;;;;;;;;15.90;60.80;;;;;;5100991;28;19908;-71
2021/12/17 08:26:28;;;;;;;;;;;15.90;60.90;;;;;;5100802;28;19978;-71
2021/12/17 08:29:23;;;;;;;;;;;15.90;60.70;;;;;;5100714;28;19908;-70
2021/12/17 08:31:39;;;;;;;;;;;15.90;60.80;;;;;;5100033;28;19907;-71
2021/12/17 08:34:05;;;;;;;;;;;15.90;60.80;;;;;;5100612;28;19904;-71
2021/12/17 08:36:31;;;;;;;;;;;15.90;60.80;;;;;;5100563;28;19915;-72
2021/12/17 08:38:56;;;;;;;;;;;15.90;60.70;;;;;;5100520;28;19908;-72
2021/12/17 08:41:22;;;;;;;;;;;15.90;60.80;;;;;;5082210;28;20085;-71
2021/12/17 08:43:48;;;;;;;;;;;15.90;60.70;;;;;;5100463;28;19934;-71
2021/12/17 08:46:13;;;;;;;;;;;15.90;60.70;;;;;;5082315;28;20207;-71
2021/12/17 08:48:39;;;;;;;;;;;16.00;60.70;;;;;;5100375;28;19935;-71
2021/12/17 08:51:07;;;;;;;;;;;15.90;60.70;;;;;;5099718;28;19915;-71
2021/12/17 08:53:34;;;;;;;;;;;15.90;60.80;;;;;;5100279;28;20291;-70
2021/12/17 08:56:00;;;;;;;;;;;15.90;60.70;;;;;;5100356;28;19900;-71
2021/12/17 08:58:25;;;;;;;;;;;16.00;60.80;;;;;;5100146;28;19920;-71
2021/12/17 09:00:51;;;;;;;;;;;15.90;60.70;;;;;;5100181;28;19955;-70
2021/12/17 09:03:16;;;;;;;;;;;15.90;60.70;;;;;;5100100;28;19908;-71
2021/12/17 09:05:43;;;;;;;;;;;15.90;60.70;;;;;;5100209;28;20108;-71
2021/12/17 09:08:10;;;;;;;;;;;15.90;60.60;;;;;;5081929;28;19949;-71
2021/12/17 09:10:36;;;;;;;;;;;16.00;60.60;;;;;;5100121;28;19914;-71
2021/12/17 09:13:02;;;;;;;;;;;16.00;60.50;;;;;;5100145;28;19908;-71
2021/12/17 09:15:28;;;;;;;;;;;16.10;60.40;;;;;;5099966;28;20253;-72
2021/12/17 09:17:53;;;;;;;;;;;16.10;60.20;;;;;;5099984;28;19907;-71
2021/12/17 09:20:19;;;;;;;;;;;16.20;59.60;;;;;;5099899;28;19910;-71
2021/12/17 09:22:45;;;;;;;;;;;16.20;59.80;;;;;;5100069;28;20073;-71
2021/12/17 09:25:10;;;;;;;;;;;16.20;59.80;;;;;;5099930;28;20253;-72
2021/12/17 09:27:36;;;;;;;;;;;16.30;59.80;;;;;;5099905;28;20108;-71
2021/12/17 09:30:03;;;;;;;;;;;16.30;60.00;;;;;;5099960;28;19950;-71
2021/12/17 09:32:28;;;;;;;;;;;16.30;59.90;;;;;;5099898;28;20104;-71
2021/12/17 09:34:54;;;;;;;;;;;16.30;60.00;;;;;;5099934;28;19900;-72
2021/12/17 09:37:19;;;;;;;;;;;16.30;60.00;;;;;;5099870;28;19908;-71
2021/12/17 09:39:46;;;;;;;;;;;16.30;60.00;;;;;;5099755;28;19939;-71
2021/12/17 09:42:12;;;;;;;;;;;16.40;60.10;;;;;;5099876;28;20312;-71
2021/12/17 09:44:38;;;;;;;;;;;16.40;59.90;;;;;;5099837;28;19915;-72
2021/12/17 09:47:04;;;;;;;;;;;16.40;59.90;;;;;;5081630;28;19899;-71
2021/12/17 09:49:30;;;;;;;;;;;16.40;59.90;;;;;;5099760;28;19907;-71
2021/12/17 09:51:56;;;;;;;;;;;16.40;60.00;;;;;;5099659;28;19915;-72
2021/12/17 09:54:22;;;;;;;;;;;16.40;59.90;;;;;;5099792;28;19911;-72
2021/12/17 09:56:47;;;;;;;;;;;16.40;60.00;;;;;;5099637;28;19908;-72
2021/12/17 09:59:13;;;;;;;;;;;16.40;60.00;;;;;;5099538;28;19920;-71
2021/12/17 10:01:40;;;;;;;;;;;16.50;60.00;;;;;;5100755;28;19904;-71
2021/12/17 10:04:17;;;;;;;;;;;16.50;60.00;;;;;;5103542;28;20401;-72
2021/12/17 10:06:43;;;;;;;;;;;16.50;60.00;;;;;;5103518;28;19967;-70
2021/12/17 10:09:09;;;;;;;;;;;16.50;60.00;;;;;;5103314;28;20058;-70
2021/12/17 10:11:35;;;;;;;;;;;16.50;60.10;;;;;;5103349;28;19938;-72
2021/12/17 10:14:16;;;;;;;;;;;16.60;60.10;;;;;;5103328;28;19908;-71
2021/12/17 10:16:42;;;;;;;;;;;16.50;60.00;;;;;;5103329;28;19983;-71
2021/12/17 10:19:07;;;;;;;;;;;16.50;60.00;;;;;;5103151;28;19908;-72
2021/12/17 10:21:38;;;;;;;;;;;16.50;60.10;;;;;;5103174;28;20107;-72
2021/12/17 10:24:04;;;;;;;;;;;16.50;60.10;;;;;;5103181;28;19907;-71
2021/12/17 10:26:39;;;;;;;;;;;16.60;60.10;;;;;;5103104;28;20099;-70
2021/12/17 10:29:04;;;;;;;;;;;16.60;60.10;;;;;;5103079;28;19900;-71
2021/12/17 10:31:31;;;;;;;;;;;16.60;60.10;;;;;;5103042;28;19954;-71
2021/12/17 10:34:01;;;;;;;;;;;16.70;60.20;;;;;;5102867;28;19915;-71
2021/12/17 10:36:56;;;;;;;;;;;16.60;60.10;;;;;;5102823;28;19914;-71
2021/12/17 10:39:25;;;;;;;;;;;16.60;60.10;;;;;;5081084;28;19908;-70
2021/12/17 10:41:51;;;;;;;;;;;16.60;60.20;;;;;;5102710;28;19919;-70
2021/12/17 10:44:20;;;;;;;;;;;16.60;60.20;;;;;;5102684;28;19921;-71
2021/12/17 10:47:29;;;;;;;;;;;16.60;60.20;;;;;;5102603;28;19935;-72
2021/12/17 10:49:56;;;;;;;;;;;16.60;60.20;;;;;;5102690;28;19938;-71
2021/12/17 10:52:29;;;;;;;;;;;16.70;60.30;;;;;;5102544;28;19908;-72
2021/12/17 10:55:13;;;;;;;;;;;16.70;60.30;;;;;;5102610;28;19900;-71
2021/12/17 10:57:39;;;;;;;;;;;16.70;60.20;;;;;;5102417;28;20207;-71
2021/12/17 11:00:06;;;;;;;;;;;16.70;60.20;;;;;;5102404;28;19908;-71
2021/12/17 11:02:37;;;;;;;;;;;16.70;60.10;;;;;;5102441;28;19907;-71
2021/12/17 11:05:12;;;;;;;;;;;16.70;60.20;;;;;;5102377;28;19915;-71
2021/12/17 11:07:38;;;;;;;;;;;16.70;60.20;;;;;;5102355;28;19949;-71
2021/12/17 11:10:04;;;;;;;;;;;16.70;60.20;;;;;;5102289;28;20095;-71
2021/12/17 11:12:31;;;;;;;;;;;16.70;60.20;;;;;;5102078;28;19907;-70
2021/12/17 11:15:12;;;;;;;;;;;16.80;60.20;;;;;;5101660;28;20402;-72
2021/12/17 11:17:39;;;;;;;;;;;16.80;60.20;;;;;;5102169;28;19915;-71
2021/12/17 11:20:06;;;;;;;;;;;16.80;60.20;;;;;;5083960;28;19911;-71
2021/12/17 11:22:32;;;;;;;;;;;16.80;60.20;;;;;;5101833;28;19936;-71
2021/12/17 11:25:01;;;;;;;;;;;16.80;60.10;;;;;;5102081;28;19923;-72
2021/12/17 11:27:27;;;;;;;;;;;16.80;60.20;;;;;;5101917;28;19914;-72
2021/12/17 11:29:53;;;;;;;;;;;16.80;60.30;;;;;;5101967;28;19908;-72
2021/12/17 11:32:19;;;;;;;;;;;16.80;60.20;;;;;;5083666;28;19904;-72
2021/12/17 11:34:44;;;;;;;;;;;16.70;60.30;;;;;;5083641;28;19904;-72
2021/12/17 11:37:10;;;;;;;;;;;16.70;60.40;;;;;;5101697;28;19908;-71
2021/12/17 11:39:40;;;;;;;;;;;16.80;60.40;;;;;;5101795;28;19973;-72
2021/12/17 11:42:19;;;;;;;;;;;16.80;60.30;;;;;;5101629;28;19923;-72
2021/12/17 11:45:23;;;;;;;;;;;16.80;60.40;;;;;;5101725;28;19936;-71
2021/12/17 11:47:35;;;;;;;;;;;16.80;60.40;;;;;;5099963;28;19911;-72
2021/12/17 11:50:03;;;;;;;;;;;16.80;60.40;;;;;;5101494;28;20216;-72
2021/12/17 11:52:34;;;;;;;;;;;16.80;60.40;;;;;;5101458;28;19929;-72
2021/12/17 11:55:38;;;;;;;;;;;16.80;60.40;;;;;;5101406;28;19946;-71
2021/12/17 11:58:06;;;;;;;;;;;16.70;60.40;;;;;;4999296;28;19984;-71
2021/12/17 12:00:41;;;;;;;;;;;16.70;60.60;;;;;;4999442;28;20110;-71
2021/12/17 12:03:19;;;;;;;;;;;16.70;60.50;;;;;;5054305;28;19940;-71
2021/12/17 12:05:46;;;;;;;;;;;16.80;60.60;;;;;;5101285;28;19904;-71
2021/12/17 12:08:28;;;;;;;;;;;16.80;60.50;;;;;;5101317;28;19908;-72
2021/12/17 12:11:02;;;;;;;;;;;16.80;60.60;;;;;;5101191;28;19908;-72
2021/12/17 12:13:47;;;;;;;;;;;16.80;60.40;;;;;;5101102;28;19911;-72
2021/12/17 12:16:20;;;;;;;;;;;16.80;60.40;;;;;;5101070;28;19975;-72
2021/12/17 12:18:47;;;;;;;;;;;16.80;60.40;;;;;;5082839;28;19940;-71
2021/12/17 12:21:15;;;;;;;;;;;16.80;60.40;;;;;;5100937;28;19912;-71
2021/12/17 12:23:42;;;;;;;;;;;16.80;60.40;;;;;;5082790;28;19908;-70
2021/12/17 12:26:11;;;;;;;;;;;16.80;60.40;;;;;;5099916;28;19908;-71
2021/12/17 12:28:47;;;;;;;;;;;16.80;60.40;;;;;;5100443;28;19908;-72
2021/12/17 12:31:31;;;;;;;;;;;16.80;60.40;;;;;;5100873;28;19935;-70
2021/12/17 12:36:44;;;;;;;;;;;16.80;60.30;;;;;;5100979;28;19908;-71
2021/12/17 12:39:26;;;;;;;;;;;16.80;60.30;;;;;;5100655;28;19900;-70
2021/12/17 12:41:55;;;;;;;;;;;16.80;60.40;;;;;;5100590;28;20657;-70
2021/12/17 12:44:21;;;;;;;;;;;16.80;60.50;;;;;;5100538;28;19912;-72
2021/12/17 12:46:51;;;;;;;;;;;16.80;60.50;;;;;;5100558;28;19929;-72
2021/12/17 12:49:35;;;;;;;;;;;16.80;60.60;;;;;;5100454;28;19961;-71
2021/12/17 12:52:15;;;;;;;;;;;16.80;60.50;;;;;;5100423;28;19908;-71
2021/12/17 12:54:41;;;;;;;;;;;16.80;60.40;;;;;;5100434;28;19955;-72
2021/12/17 12:57:08;;;;;;;;;;;16.80;60.40;;;;;;5100431;28;19915;-72
2021/12/17 12:59:34;;;;;;;;;;;16.80;60.50;;;;;;5100162;28;20162;-71
2021/12/17 13:02:00;;;;;;;;;;;16.80;60.40;;;;;;5100250;28;19904;-72
2021/12/17 13:04:29;;;;;;;;;;;16.70;60.20;;;;;;5100226;28;20410;-71
2021/12/17 13:06:55;;;;;;;;;;;16.70;60.70;;;;;;5100260;28;20223;-72
2021/12/17 13:09:27;;;;;;;;;;;16.70;60.50;;;;;;5100186;28;19908;-71
2021/12/17 13:11:53;;;;;;;;;;;16.70;60.60;;;;;;5100201;28;20309;-72
2021/12/17 13:14:23;;;;;;;;;;;16.70;60.40;;;;;;5100128;28;19900;-72
2021/12/17 13:17:06;;;;;;;;;;;16.70;60.30;;;;;;5100525;28;19906;-71
2021/12/17 13:22:40;;;;;;;;;;;16.70;60.40;;;;;;5100307;28;20249;-73
2021/12/17 13:25:01;;;;;;;;;;;16.70;60.40;;;;;;5100001;28;19908;-71
2021/12/17 13:27:27;;;;;;;;;;;16.70;60.30;;;;;;5099965;28;19912;-71
2021/12/17 13:29:52;;;;;;;;;;;16.70;59.90;;;;;;5100038;28;19908;-71
2021/12/17 13:32:18;;;;;;;;;;;16.70;60.10;;;;;;5099949;28;19908;-71
2021/12/17 13:34:44;;;;;;;;;;;16.70;60.20;;;;;;5099842;28;20206;-72
2021/12/17 13:37:15;;;;;;;;;;;16.70;60.00;;;;;;5101891;28;19900;-71
2021/12/17 13:39:55;;;;;;;;;;;16.70;59.90;;;;;;5104019;28;19911;-71
2021/12/17 13:42:20;;;;;;;;;;;16.70;59.60;;;;;;5104002;28;19960;-70
2021/12/17 13:44:47;;;;;;;;;;;16.70;60.20;;;;;;5103822;28;19912;-71
2021/12/17 13:47:13;;;;;;;;;;;16.70;60.10;;;;;;5104513;28;19908;-70
2021/12/17 13:49:46;;;;;;;;;;;16.80;59.80;;;;;;5103850;28;20351;-71
2021/12/17 13:52:12;;;;;;;;;;;16.80;59.60;;;;;;5103801;28;19908;-71
2021/12/17 13:54:38;;;;;;;;;;;16.80;60.10;;;;;;5103657;28;19973;-71
2021/12/17 13:57:04;;;;;;;;;;;16.80;60.20;;;;;;5103645;28;19908;-71
2021/12/17 13:59:31;;;;;;;;;;;16.80;60.10;;;;;;5103424;28;19912;-71
2021/12/17 14:01:56;;;;;;;;;;;16.90;60.10;;;;;;5103415;28;19957;-71
2021/12/17 14:04:22;;;;;;;;;;;16.90;60.00;;;;;;5103537;28;19912;-71
2021/12/17 14:06:53;;;;;;;;;;;16.90;60.10;;;;;;5085532;28;19931;-71
2021/12/17 14:09:23;;;;;;;;;;;16.90;59.90;;;;;;5103648;28;19915;-70
2021/12/17 14:11:49;;;;;;;;;;;16.90;59.80;;;;;;5103531;28;20127;-71
2021/12/17 14:14:24;;;;;;;;;;;16.90;59.60;;;;;;5103318;28;19900;-71
2021/12/17 14:16:57;;;;;;;;;;;16.90;59.40;;;;;;5103184;28;19942;-71
2021/12/17 14:19:41;;;;;;;;;;;16.90;60.00;;;;;;5084989;28;19908;-71
2021/12/17 14:22:27;;;;;;;;;;;16.90;60.30;;;;;;5103006;28;19916;-72
2021/12/17 14:24:56;;;;;;;;;;;16.90;60.00;;;;;;5103035;28;20405;-72
2021/12/17 14:27:22;;;;;;;;;;;16.90;60.30;;;;;;5103300;28;19955;-72
2021/12/17 14:30:01;;;;;;;;;;;16.90;60.20;;;;;;5102975;28;19965;-72
2021/12/17 14:32:26;;;;;;;;;;;16.80;60.80;;;;;;5102880;28;19983;-71
2021/12/17 14:34:52;;;;;;;;;;;16.80;59.80;;;;;;5102884;28;20265;-71
2021/12/17 14:37:17;;;;;;;;;;;16.80;59.80;;;;;;5102774;28;19908;-72
2021/12/17 14:39:47;;;;;;;;;;;16.80;60.00;;;;;;5102765;28;20175;-72
2021/12/17 14:42:28;;;;;;;;;;;16.80;59.90;;;;;;5102828;28;19924;-72
2021/12/17 14:44:59;;;;;;;;;;;16.80;60.20;;;;;;5102649;28;19908;-70
2021/12/17 14:47:31;;;;;;;;;;;16.80;60.20;;;;;;5102294;28;19927;-72
2021/12/17 15:03:40;;;;;;;;;;;16.70;59.90;;;;;;5102267;28;19914;-72
2021/12/17 15:06:06;;;;;;;;;;;16.70;59.60;;;;;;5102223;28;19967;-71
2021/12/17 15:08:32;;;;;;;;;;;16.70;59.70;;;;;;5102266;28;20111;-71
2021/12/17 15:10:59;;;;;;;;;;;16.70;59.60;;;;;;5102108;28;19916;-71
2021/12/17 15:13:24;;;;;;;;;;;16.70;59.60;;;;;;5102218;28;19900;-71
2021/12/17 15:15:52;;;;;;;;;;;16.70;59.30;;;;;;5101991;28;19947;-72
2021/12/17 15:18:19;;;;;;;;;;;16.70;59.20;;;;;;5102043;28;19908;-71
2021/12/17 15:20:46;;;;;;;;;;;16.70;58.40;;;;;;5101974;28;19910;-71
2021/12/17 15:23:13;;;;;;;;;;;16.70;58.60;;;;;;5101959;28;19953;-71
2021/12/17 15:25:39;;;;;;;;;;;16.70;58.50;;;;;;5101836;28;19950;-71
2021/12/17 15:28:05;;;;;;;;;;;16.70;59.20;;;;;;5101846;28;19907;-72
2021/12/17 15:30:36;;;;;;;;;;;16.70;59.50;;;;;;5101730;28;19908;-72
2021/12/17 15:33:02;;;;;;;;;;;16.70;59.30;;;;;;5101791;28;19912;-72
2021/12/17 15:35:28;;;;;;;;;;;16.70;59.00;;;;;;5101644;28;19944;-72
2021/12/17 15:37:55;;;;;;;;;;;16.70;59.00;;;;;;5101636;28;19908;-71
2021/12/17 15:40:21;;;;;;;;;;;16.70;59.20;;;;;;5101452;28;19919;-72
2021/12/17 15:42:48;;;;;;;;;;;16.70;59.00;;;;;;5101485;28;19908;-71
2021/12/17 15:45:14;;;;;;;;;;;16.70;58.50;;;;;;5083263;28;20159;-71
2021/12/17 15:47:39;;;;;;;;;;;16.70;58.80;;;;;;5101373;28;19900;-71
2021/12/17 15:50:06;;;;;;;;;;;16.70;59.10;;;;;;5101362;28;19979;-71
2021/12/17 15:52:52;;;;;;;;;;;16.70;59.20;;;;;;5101292;28;19942;-70
2021/12/17 15:55:21;;;;;;;;;;;16.70;59.00;;;;;;5101189;28;19978;-71
2021/12/17 15:57:46;;;;;;;;;;;16.70;58.80;;;;;;5101031;28;19912;-71
2021/12/17 16:00:13;;;;;;;;;;;16.70;59.30;;;;;;5082747;28;19919;-71
2021/12/17 16:02:41;;;;;;;;;;;16.70;59.80;;;;;;5101081;28;19907;-72
2021/12/17 16:05:08;;;;;;;;;;;16.70;59.30;;;;;;5101065;28;19908;-71
2021/12/17 16:07:36;;;;;;;;;;;16.70;58.30;;;;;;5083294;28;19923;-71
2021/12/17 16:22:48;;;;;;;;;;;16.70;58.50;;;;;;5100742;28;19984;-71
2021/12/17 16:25:14;;;;;;;;;;;16.70;58.40;;;;;;5100885;28;19900;-71
2021/12/17 16:27:39;;;;;;;;;;;16.70;59.00;;;;;;5100638;28;19900;-71
2021/12/17 16:30:06;;;;;;;;;;;16.70;59.40;;;;;;5100594;28;19908;-71
2021/12/17 16:32:31;;;;;;;;;;;16.70;59.20;;;;;;5100487;28;19908;-71
2021/12/17 16:34:57;;;;;;;;;;;16.70;59.40;;;;;;5100484;28;19945;-71
2021/12/17 16:37:22;;;;;;;;;;;16.70;59.20;;;;;;5100427;28;19949;-70
2021/12/17 16:39:48;;;;;;;;;;;16.60;59.40;;;;;;5100344;28;19908;-71
2021/12/17 16:42:17;;;;;;;;;;;16.60;59.70;;;;;;5100346;28;19945;-71
2021/12/17 16:45:19;;;;;;;;;;;16.60;58.30;;;;;;5100389;28;19908;-71
2021/12/17 16:47:36;;;;;;;;;;;16.70;58.90;;;;;;5100114;28;19931;-71
2021/12/17 16:50:04;;;;;;;;;;;16.70;58.60;;;;;;5100327;28;20219;-71
2021/12/17 16:52:30;;;;;;;;;;;16.70;59.70;;;;;;5100170;28;20196;-71
2021/12/17 16:54:56;;;;;;;;;;;16.60;59.50;;;;;;5100215;28;19908;-72
2021/12/17 16:57:22;;;;;;;;;;;16.60;59.70;;;;;;5100119;28;19935;-71
2021/12/17 16:59:48;;;;;;;;;;;16.60;59.50;;;;;;5100013;28;20293;-71
2021/12/17 17:02:14;;;;;;;;;;;16.60;60.20;;;;;;5100038;28;19920;-71
2021/12/17 17:04:39;;;;;;;;;;;16.60;59.50;;;;;;5100044;28;19900;-71
2021/12/17 17:07:05;;;;;;;;;;;16.60;59.30;;;;;;5081937;28;20210;-71
2021/12/17 17:09:32;;;;;;;;;;;16.60;58.90;;;;;;5100037;28;19908;-70
2021/12/17 17:12:02;;;;;;;;;;;16.60;59.50;;;;;;5099412;28;19911;-71
2021/12/17 17:14:29;;;;;;;;;;;16.60;59.60;;;;;;5100205;28;19915;-71
2021/12/17 17:16:55;;;;;;;;;;;16.60;59.80;;;;;;5099992;28;20187;-71
2021/12/17 17:19:20;;;;;;;;;;;16.60;59.60;;;;;;5099865;28;19942;-71
2021/12/17 17:21:46;;;;;;;;;;;16.60;59.70;;;;;;5100062;28;20202;-70
2021/12/17 17:24:11;;;;;;;;;;;16.60;59.40;;;;;;5099888;28;19907;-71
2021/12/17 17:26:37;;;;;;;;;;;16.60;59.20;;;;;;5099846;28;19916;-71
2021/12/17 17:29:05;;;;;;;;;;;16.60;59.70;;;;;;5099836;28;20113;-71
2021/12/17 17:31:31;;;;;;;;;;;16.60;59.70;;;;;;5099832;28;19950;-71
2021/12/17 17:34:03;;;;;;;;;;;16.60;59.70;;;;;;5099795;28;19912;-71